Time;durP1;ratioP1;P1;durP2;ratioP2;P2;SDS_P1;SDS_P2;PMS_P1;PMS_P2;Temp;Humidity;BMP_temperature;BMP_pressure;BME280_temperature;BME280_humidity;BME280_pressure;Samples;Min_cycle;Max_cycle;Signal;HPM_P1;HPM_P2
2024/01/23 00:00:47;;;;;;;30.10;8.98;;;9.90;70.60;;;;;;6238816;28;20098;-74
2024/01/23 00:03:49;;;;;;;23.88;9.02;;;9.90;70.70;;;;;;6241431;28;20043;-74
2024/01/23 00:06:49;;;;;;;24.48;9.98;;;9.90;70.70;;;;;;6241765;28;20021;-73
2024/01/23 00:09:51;;;;;;;18.00;8.45;;;10.00;70.80;;;;;;6257816;28;20155;-72
2024/01/23 00:12:51;;;;;;;17.45;9.15;;;9.90;70.70;;;;;;6259746;28;20414;-73
2024/01/23 00:15:52;;;;;;;17.42;8.63;;;10.00;70.70;;;;;;6257886;28;20047;-72
2024/01/23 00:18:53;;;;;;;17.40;8.48;;;10.00;70.70;;;;;;6258230;28;20077;-72
2024/01/23 00:21:54;;;;;;;16.83;8.98;;;10.00;70.60;;;;;;6258200;28;20082;-72
2024/01/23 00:24:59;;;;;;;23.65;9.07;;;10.00;70.50;;;;;;6258140;28;20047;-73
2024/01/23 00:28:00;;;;;;;23.95;9.85;;;10.00;70.60;;;;;;6249830;28;20017;-71
2024/01/23 00:31:01;;;;;;;21.38;8.65;;;10.00;70.50;;;;;;6237356;28;20040;-73
2024/01/23 00:34:03;;;;;;;20.83;8.63;;;10.00;70.50;;;;;;6246216;28;20181;-72
2024/01/23 00:37:04;;;;;;;20.63;9.20;;;10.10;70.40;;;;;;6242581;28;20506;-71
2024/01/23 00:40:07;;;;;;;23.33;9.60;;;10.10;70.30;;;;;;6249673;28;20043;-73
2024/01/23 00:43:07;;;;;;;20.98;9.55;;;10.10;70.20;;;;;;6245806;28;20516;-72
2024/01/23 00:46:23;;;;;;;21.20;10.60;;;10.10;70.10;;;;;;6248231;28;20030;-71
2024/01/23 00:49:24;;;;;;;19.23;9.30;;;10.00;70.10;;;;;;6253476;28;20365;-73
2024/01/23 00:52:25;;;;;;;22.80;10.93;;;10.00;70.10;;;;;;6243018;28;20021;-72
2024/01/23 00:55:27;;;;;;;18.02;9.30;;;10.00;70.10;;;;;;6246954;28;20064;-73
2024/01/23 00:58:28;;;;;;;18.17;9.30;;;9.90;70.30;;;;;;6262454;28;20126;-73
2024/01/23 01:01:30;;;;;;;27.10;10.63;;;9.80;70.60;;;;;;6254846;28;20224;-72
2024/01/23 01:04:30;;;;;;;19.60;10.18;;;9.80;70.90;;;;;;6245788;28;20017;-72
2024/01/23 01:07:32;;;;;;;25.95;10.07;;;9.80;71.10;;;;;;6232375;28;20056;-71
2024/01/23 01:10:33;;;;;;;21.88;9.40;;;9.80;71.10;;;;;;6246868;28;20511;-73
2024/01/23 01:13:34;;;;;;;25.98;11.05;;;9.90;71.10;;;;;;6246937;28;20033;-74
2024/01/23 01:16:35;;;;;;;19.85;9.70;;;9.90;71.00;;;;;;6247798;28;20513;-74
2024/01/23 01:19:36;;;;;;;29.67;10.13;;;10.00;71.00;;;;;;6240780;28;20453;-73
2024/01/23 01:22:39;;;;;;;21.67;10.27;;;10.00;70.90;;;;;;6235123;28;20145;-72
2024/01/23 01:25:43;;;;;;;22.67;9.68;;;10.00;70.80;;;;;;6239622;28;20020;-72
2024/01/23 01:28:44;;;;;;;18.55;8.57;;;10.00;70.70;;;;;;6243299;28;20024;-73
2024/01/23 01:31:44;;;;;;;24.73;10.25;;;10.00;70.50;;;;;;6259257;28;20027;-73
2024/01/23 01:34:46;;;;;;;25.90;10.40;;;10.00;70.30;;;;;;6232830;28;20132;-73
2024/01/23 01:37:47;;;;;;;21.40;9.50;;;10.10;70.40;;;;;;6243676;28;20071;-72
2024/01/23 01:40:48;;;;;;;20.10;9.13;;;9.90;70.40;;;;;;6247041;28;20038;-72
2024/01/23 01:43:48;;;;;;;18.48;9.63;;;9.90;70.40;;;;;;6258070;28;20040;-72
2024/01/23 01:46:51;;;;;;;20.35;9.80;;;9.90;70.40;;;;;;6248500;28;20072;-72
2024/01/23 01:49:52;;;;;;;22.77;8.30;;;9.90;70.40;;;;;;6246624;28;20918;-73
2024/01/23 01:52:54;;;;;;;27.92;11.45;;;9.90;70.30;;;;;;6272628;28;20545;-73
2024/01/23 01:55:54;;;;;;;19.60;9.35;;;9.80;70.10;;;;;;6225079;28;20012;-72
2024/01/23 01:58:57;;;;;;;29.65;11.00;;;9.80;70.20;;;;;;6234274;28;20365;-73
2024/01/23 02:01:59;;;;;;;25.25;10.30;;;9.70;70.30;;;;;;6241998;28;20044;-71
2024/01/23 02:05:00;;;;;;;20.02;10.13;;;9.70;70.50;;;;;;6244332;28;20166;-73
2024/01/23 02:08:01;;;;;;;23.10;9.10;;;9.80;70.70;;;;;;6244555;28;20020;-73
2024/01/23 02:11:03;;;;;;;20.55;9.93;;;9.80;70.80;;;;;;6242527;28;20029;-73
2024/01/23 02:14:05;;;;;;;20.40;9.00;;;9.80;71.00;;;;;;6247633;28;20035;-74
2024/01/23 02:17:05;;;;;;;20.02;9.88;;;9.80;71.10;;;;;;6239593;28;20434;-73
2024/01/23 02:20:07;;;;;;;18.17;9.35;;;9.90;71.10;;;;;;6246649;28;20457;-73
2024/01/23 02:23:15;;;;;;;20.08;9.00;;;9.90;70.90;;;;;;6248459;28;20387;-72
2024/01/23 02:26:17;;;;;;;24.27;10.33;;;9.90;70.70;;;;;;6234394;28;20093;-73
2024/01/23 02:29:19;;;;;;;19.88;8.85;;;9.90;70.60;;;;;;6243597;28;20781;-72
2024/01/23 02:32:20;;;;;;;20.05;10.07;;;9.90;70.70;;;;;;6247044;28;20656;-73
2024/01/23 02:35:21;;;;;;;22.15;9.00;;;9.90;70.70;;;;;;6242149;28;20033;-73
2024/01/23 02:38:23;;;;;;;20.75;9.45;;;9.80;70.70;;;;;;6231025;28;20048;-73
2024/01/23 02:41:24;;;;;;;18.70;9.40;;;9.80;70.90;;;;;;6244517;28;20041;-72
2024/01/23 02:44:25;;;;;;;19.48;8.40;;;9.70;70.90;;;;;;6243649;28;20088;-73
2024/01/23 02:47:26;;;;;;;24.98;10.25;;;9.70;71.00;;;;;;6241767;28;20520;-73
2024/01/23 02:50:29;;;;;;;17.67;9.60;;;9.70;71.10;;;;;;6225747;28;20025;-73
2024/01/23 02:53:29;;;;;;;19.77;9.70;;;9.70;71.00;;;;;;6241768;28;20051;-73
2024/01/23 02:56:33;;;;;;;21.15;8.57;;;9.80;71.00;;;;;;6246651;28;20039;-73
2024/01/23 02:59:35;;;;;;;27.45;8.95;;;9.80;71.00;;;;;;6259395;28;20034;-72
2024/01/23 03:02:36;;;;;;;31.15;9.35;;;9.80;70.90;;;;;;6243381;28;20036;-73
2024/01/23 03:05:37;;;;;;;17.30;8.98;;;9.80;71.00;;;;;;6243453;28;20584;-72
2024/01/23 03:08:38;;;;;;;19.50;9.35;;;9.80;70.90;;;;;;6248087;28;20013;-72
2024/01/23 03:11:39;;;;;;;25.08;9.40;;;9.80;70.90;;;;;;6248420;28;20048;-73
2024/01/23 03:14:40;;;;;;;17.92;9.27;;;9.70;70.90;;;;;;6248696;28;20097;-73
2024/01/23 03:17:43;;;;;;;27.67;9.32;;;9.70;71.00;;;;;;6247969;28;20381;-73
2024/01/23 03:20:43;;;;;;;18.10;8.60;;;9.60;70.90;;;;;;6247064;28;20071;-72
2024/01/23 03:23:44;;;;;;;17.50;8.50;;;9.60;71.20;;;;;;6241858;28;20076;-71
2024/01/23 03:26:45;;;;;;;25.60;9.05;;;9.60;71.30;;;;;;6251486;28;20717;-73
2024/01/23 03:29:46;;;;;;;21.75;9.77;;;9.60;71.40;;;;;;6245311;28;20044;-71
2024/01/23 03:32:47;;;;;;;22.70;10.00;;;9.60;71.50;;;;;;6249842;28;20035;-72
2024/01/23 03:35:49;;;;;;;19.55;9.30;;;9.60;71.50;;;;;;6247430;28;20429;-73
2024/01/23 03:38:50;;;;;;;23.15;9.65;;;9.60;71.60;;;;;;6244662;28;20033;-72
2024/01/23 03:41:51;;;;;;;25.52;10.43;;;9.50;71.60;;;;;;6247539;28;20040;-73
2024/01/23 03:44:52;;;;;;;22.20;9.68;;;9.50;71.60;;;;;;6252135;28;20025;-72
2024/01/23 03:47:53;;;;;;;22.15;9.63;;;9.50;71.70;;;;;;6261534;28;20022;-72
2024/01/23 03:50:54;;;;;;;23.98;10.27;;;9.50;71.80;;;;;;6265446;28;20027;-72
2024/01/23 03:53:56;;;;;;;20.25;10.30;;;9.50;71.70;;;;;;6247967;28;20031;-71
2024/01/23 03:56:57;;;;;;;19.98;9.55;;;9.50;71.70;;;;;;6247636;28;20025;-73
2024/01/23 03:59:58;;;;;;;20.40;9.20;;;9.50;71.60;;;;;;6249998;28;20487;-72
2024/01/23 04:02:59;;;;;;;21.95;9.10;;;9.50;71.60;;;;;;6229178;28;20450;-71
2024/01/23 04:06:00;;;;;;;23.15;9.65;;;9.50;71.60;;;;;;6241494;28;20105;-73
2024/01/23 04:09:02;;;;;;;25.45;8.32;;;9.40;71.60;;;;;;6246596;28;20013;-72
2024/01/23 04:12:03;;;;;;;33.13;10.25;;;9.40;71.50;;;;;;6254002;28;20044;-73
2024/01/23 04:15:05;;;;;;;23.85;9.32;;;9.30;71.50;;;;;;6232779;28;20472;-71
2024/01/23 04:18:06;;;;;;;15.07;9.52;;;9.20;71.60;;;;;;6246356;28;20137;-71
2024/01/23 04:21:08;;;;;;;23.90;10.43;;;9.20;71.80;;;;;;6244240;28;20041;-73
2024/01/23 04:24:09;;;;;;;21.00;9.80;;;9.10;71.80;;;;;;6228201;28;20030;-73
2024/01/23 04:27:12;;;;;;;22.02;10.25;;;9.10;71.90;;;;;;6244559;28;20755;-72
2024/01/23 04:30:13;;;;;;;21.67;10.25;;;9.00;71.90;;;;;;6246788;28;20418;-72
2024/01/23 04:33:14;;;;;;;32.30;11.15;;;8.90;71.80;;;;;;6245865;28;20075;-72
2024/01/23 04:36:15;;;;;;;24.88;9.32;;;9.00;71.90;;;;;;6246802;28;20033;-72
2024/01/23 04:39:16;;;;;;;23.38;8.70;;;8.90;72.00;;;;;;6235753;28;20103;-72
2024/01/23 04:42:17;;;;;;;23.10;10.75;;;8.90;72.10;;;;;;6230667;28;20503;-71
2024/01/23 04:45:18;;;;;;;23.33;10.23;;;8.90;72.30;;;;;;6248301;28;20073;-71
2024/01/23 04:48:19;;;;;;;26.05;10.50;;;8.90;72.30;;;;;;6245081;28;20729;-72
2024/01/23 04:51:20;;;;;;;27.33;11.05;;;9.00;72.30;;;;;;6248338;28;20036;-71
2024/01/23 04:54:23;;;;;;;20.65;10.45;;;9.00;72.20;;;;;;6252085;28;20474;-72
2024/01/23 04:57:31;;;;;;;29.52;11.57;;;8.90;72.30;;;;;;6248662;28;20552;-72
2024/01/23 05:00:32;;;;;;;32.65;12.40;;;8.90;72.50;;;;;;6251628;28;20106;-72
2024/01/23 05:03:33;;;;;;;23.58;11.50;;;8.90;72.60;;;;;;6246840;28;20025;-72
2024/01/23 05:06:35;;;;;;;22.83;10.45;;;8.90;72.70;;;;;;6245606;28;20102;-72
2024/01/23 05:09:36;;;;;;;29.80;10.82;;;8.90;72.70;;;;;;6244978;28;20040;-72
2024/01/23 05:12:38;;;;;;;24.38;11.50;;;9.00;72.80;;;;;;6246440;28;20024;-72
2024/01/23 05:15:39;;;;;;;30.50;12.35;;;9.10;72.70;;;;;;6275665;28;20025;-72
2024/01/23 05:18:40;;;;;;;35.13;13.40;;;9.10;72.60;;;;;;6255069;28;20108;-72
2024/01/23 05:21:41;;;;;;;25.65;11.98;;;9.10;72.50;;;;;;6249432;28;20511;-72
2024/01/23 05:24:42;;;;;;;27.95;11.18;;;9.20;72.40;;;;;;6245887;28;20100;-72
2024/01/23 05:27:43;;;;;;;37.88;11.90;;;9.10;72.30;;;;;;6243246;28;20542;-71
2024/01/23 05:30:45;;;;;;;29.30;12.95;;;9.10;72.40;;;;;;6229908;28;20025;-71
2024/01/23 05:33:45;;;;;;;26.85;11.73;;;9.10;72.40;;;;;;6243233;28;20086;-72
2024/01/23 05:36:46;;;;;;;26.48;11.60;;;9.10;72.30;;;;;;6241122;28;20369;-72
2024/01/23 05:39:47;;;;;;;31.35;11.35;;;9.00;72.30;;;;;;6244154;28;20131;-71
2024/01/23 05:42:48;;;;;;;26.48;10.60;;;9.00;72.40;;;;;;6245896;28;20467;-72
2024/01/23 05:45:49;;;;;;;22.75;10.60;;;9.00;72.40;;;;;;6240452;28;20068;-72
2024/01/23 05:48:50;;;;;;;24.83;10.23;;;8.90;72.30;;;;;;6234445;28;20025;-71
2024/01/23 05:51:51;;;;;;;28.95;10.82;;;8.90;72.40;;;;;;6246646;28;20044;-73
2024/01/23 05:54:52;;;;;;;31.65;10.73;;;8.90;72.60;;;;;;6245359;28;20048;-72
2024/01/23 05:57:53;;;;;;;24.52;11.90;;;8.90;72.70;;;;;;6244437;28;20076;-72
2024/01/23 06:00:57;;;;;;;21.58;10.75;;;8.90;72.80;;;;;;6246504;28;20149;-73
2024/01/23 06:03:58;;;;;;;30.75;10.48;;;8.80;72.90;;;;;;6238749;28;20115;-73
2024/01/23 06:06:59;;;;;;;25.45;9.77;;;8.80;72.90;;;;;;6243167;28;20021;-74
2024/01/23 06:10:00;;;;;;;29.63;10.52;;;8.80;73.00;;;;;;6247052;28;20477;-72
2024/01/23 06:13:01;;;;;;;32.05;11.90;;;8.80;73.00;;;;;;6251053;28;20023;-72
2024/01/23 06:16:03;;;;;;;38.00;12.18;;;8.80;73.30;;;;;;6240259;28;20460;-72
2024/01/23 06:19:08;;;;;;;44.47;13.55;;;8.70;73.50;;;;;;6247506;28;20021;-72
2024/01/23 06:22:09;;;;;;;41.08;13.27;;;8.70;73.70;;;;;;6247279;28;20033;-72
2024/01/23 06:25:14;;;;;;;33.08;12.57;;;8.80;73.90;;;;;;6236942;28;20069;-71
2024/01/23 06:28:17;;;;;;;39.60;12.05;;;8.70;73.90;;;;;;6243168;28;20253;-72
2024/01/23 06:31:20;;;;;;;29.10;11.95;;;8.80;74.10;;;;;;6241016;28;20444;-72
2024/01/23 06:34:21;;;;;;;39.90;12.88;;;8.80;74.00;;;;;;6242399;28;20024;-72
2024/01/23 06:37:23;;;;;;;34.95;11.02;;;8.90;74.10;;;;;;6241206;28;20144;-72
2024/01/23 06:40:24;;;;;;;32.25;11.00;;;8.90;74.20;;;;;;6241009;28;20079;-72
2024/01/23 06:43:26;;;;;;;27.77;11.10;;;8.90;74.10;;;;;;6244780;28;20058;-72
2024/01/23 06:46:27;;;;;;;36.70;12.20;;;8.90;74.20;;;;;;6238613;28;20068;-72
2024/01/23 06:49:28;;;;;;;32.97;10.82;;;8.90;74.40;;;;;;6245863;28;20102;-72
2024/01/23 06:52:29;;;;;;;45.60;9.68;;;9.00;75.20;;;;;;6246932;28;20025;-73
2024/01/23 06:55:30;;;;;;;35.80;10.75;;;9.00;74.40;;;;;;6240131;28;20044;-73
2024/01/23 06:58:31;;;;;;;32.83;10.07;;;9.00;74.30;;;;;;6243970;28;20079;-72
2024/01/23 07:01:32;;;;;;;31.52;10.38;;;9.10;74.30;;;;;;6243161;28;20496;-73
2024/01/23 07:04:33;;;;;;;26.30;10.95;;;9.10;74.40;;;;;;6238709;28;20024;-72
2024/01/23 07:07:35;;;;;;;33.78;9.73;;;9.10;74.50;;;;;;6233400;28;20022;-72
2024/01/23 07:10:36;;;;;;;57.08;10.93;;;9.20;74.40;;;;;;6241479;28;20111;-72
2024/01/23 07:13:37;;;;;;;41.33;11.18;;;9.20;74.30;;;;;;6238771;28;20470;-70
2024/01/23 07:16:37;;;;;;;30.70;10.82;;;9.20;74.20;;;;;;6234556;28;20029;-72
2024/01/23 07:19:38;;;;;;;33.60;10.75;;;9.20;74.20;;;;;;6238240;28;20025;-73
2024/01/23 07:22:40;;;;;;;44.13;12.00;;;9.20;74.20;;;;;;6239100;28;20171;-73
2024/01/23 07:25:42;;;;;;;40.25;9.85;;;9.20;74.30;;;;;;6245473;28;20595;-72
2024/01/23 07:28:42;;;;;;;44.25;11.07;;;9.20;74.40;;;;;;6222961;28;20053;-71
2024/01/23 07:31:43;;;;;;;42.33;10.73;;;9.20;74.20;;;;;;6245739;28;20708;-72
2024/01/23 07:34:44;;;;;;;45.55;11.20;;;9.10;74.20;;;;;;6241996;28;20036;-72
2024/01/23 07:37:45;;;;;;;47.67;10.70;;;9.10;74.40;;;;;;6232595;28;20033;-71
2024/01/23 07:40:46;;;;;;;35.33;10.35;;;9.10;74.50;;;;;;6240563;28;20033;-73
2024/01/23 07:43:46;;;;;;;36.80;10.20;;;9.10;74.60;;;;;;6238951;28;20083;-72
2024/01/23 07:46:51;;;;;;;22.73;8.57;;;9.10;74.80;;;;;;6246639;28;20014;-73
2024/01/23 07:49:52;;;;;;;23.88;9.27;;;9.10;74.80;;;;;;6239506;28;20109;-72
2024/01/23 07:52:55;;;;;;;24.95;8.57;;;9.10;74.80;;;;;;6238467;28;20440;-72
2024/01/23 07:55:57;;;;;;;44.08;10.70;;;9.20;74.80;;;;;;6269760;28;20137;-73
2024/01/23 07:58:58;;;;;;;28.52;8.70;;;9.20;74.70;;;;;;6243407;28;20114;-72
2024/01/23 08:02:00;;;;;;;35.58;8.43;;;9.30;74.70;;;;;;6242562;28;20514;-72
2024/01/23 08:05:01;;;;;;;28.27;9.70;;;9.30;74.50;;;;;;6252515;28;20025;-71
2024/01/23 08:08:02;;;;;;;31.25;9.38;;;9.30;74.40;;;;;;6248025;28;20149;-72
2024/01/23 08:11:02;;;;;;;28.23;8.82;;;9.30;74.50;;;;;;6232540;28;20029;-72
2024/01/23 08:14:03;;;;;;;25.90;8.88;;;9.30;74.50;;;;;;6241800;28;20115;-71
2024/01/23 08:17:05;;;;;;;26.00;9.07;;;9.30;74.60;;;;;;6243278;28;20637;-71
2024/01/23 08:20:08;;;;;;;27.90;8.18;;;9.40;74.50;;;;;;6248288;28;20048;-74
2024/01/23 08:23:08;;;;;;;33.20;8.32;;;9.40;74.30;;;;;;6251181;28;20102;-72
2024/01/23 08:26:09;;;;;;;27.75;8.18;;;9.40;74.30;;;;;;6245948;28;20036;-74
2024/01/23 08:29:10;;;;;;;20.75;8.07;;;9.40;74.20;;;;;;6259699;28;20016;-72
2024/01/23 08:32:11;;;;;;;18.63;7.50;;;9.50;74.30;;;;;;6244211;28;20505;-71
2024/01/23 08:35:12;;;;;;;17.13;8.13;;;9.50;74.20;;;;;;6243983;28;20103;-72
2024/01/23 08:38:13;;;;;;;27.42;8.73;;;9.60;74.90;;;;;;6228581;28;20039;-71
2024/01/23 08:41:14;;;;;;;20.73;8.02;;;9.60;74.20;;;;;;6257295;28;20049;-71
2024/01/23 08:44:16;;;;;;;21.50;7.38;;;9.70;73.90;;;;;;6236264;28;20025;-72
2024/01/23 08:47:17;;;;;;;22.20;9.55;;;9.70;73.60;;;;;;6263044;28;20404;-71
2024/01/23 08:50:18;;;;;;;26.50;7.82;;;9.60;74.30;;;;;;6246411;28;20028;-72
2024/01/23 08:53:19;;;;;;;42.15;10.60;;;9.70;73.60;;;;;;6251581;28;20068;-70
2024/01/23 08:56:24;;;;;;;23.52;10.23;;;9.70;73.50;;;;;;6230143;28;20045;-71
2024/01/23 08:59:25;;;;;;;24.35;8.40;;;9.80;73.40;;;;;;6224334;28;20090;-72
2024/01/23 09:02:27;;;;;;;25.23;9.05;;;9.80;73.30;;;;;;6266649;28;20493;-72
2024/01/23 09:05:28;;;;;;;27.42;9.18;;;9.90;73.30;;;;;;6248586;28;20029;-72
2024/01/23 09:08:29;;;;;;;22.02;9.65;;;9.80;73.20;;;;;;6238592;28;20013;-72
2024/01/23 09:11:30;;;;;;;22.02;8.32;;;9.80;72.80;;;;;;6244864;28;20778;-72
2024/01/23 09:14:30;;;;;;;23.25;8.65;;;9.60;72.80;;;;;;6229025;28;20489;-71
2024/01/23 09:17:32;;;;;;;18.80;7.30;;;9.50;72.90;;;;;;6246637;28;20022;-75
2024/01/23 09:20:33;;;;;;;21.98;7.72;;;9.40;73.20;;;;;;6243157;28;20105;-72
2024/01/23 09:23:37;;;;;;;29.98;8.38;;;9.40;73.40;;;;;;6228556;28;20017;-72
2024/01/23 09:26:38;;;;;;;26.60;8.75;;;9.40;73.60;;;;;;6245502;28;20063;-71
2024/01/23 09:29:41;;;;;;;23.13;8.07;;;9.30;73.50;;;;;;6276197;28;20061;-72
2024/01/23 09:32:42;;;;;;;29.95;9.07;;;9.40;73.60;;;;;;6262001;28;20211;-72
2024/01/23 09:35:43;;;;;;;24.63;8.57;;;9.40;73.80;;;;;;6242622;28;20033;-73
2024/01/23 09:38:46;;;;;;;26.38;9.48;;;9.40;74.00;;;;;;6242114;28;20391;-71
2024/01/23 09:41:51;;;;;;;22.88;8.75;;;9.60;73.80;;;;;;6255537;28;20041;-71
2024/01/23 09:44:56;;;;;;;23.70;8.77;;;9.70;73.50;;;;;;6242556;28;20033;-71
2024/01/23 09:47:57;;;;;;;25.15;8.65;;;9.80;73.40;;;;;;6245682;28;20319;-71
2024/01/23 09:50:58;;;;;;;25.20;9.30;;;9.90;73.40;;;;;;6244456;28;20096;-72
2024/01/23 09:53:59;;;;;;;20.88;8.43;;;10.00;73.30;;;;;;6230735;28;20080;-70
2024/01/23 09:57:00;;;;;;;26.35;9.05;;;10.20;73.10;;;;;;6226609;28;20116;-72
2024/01/23 10:00:01;;;;;;;35.20;10.95;;;10.30;72.90;;;;;;6271528;28;20032;-73
2024/01/23 10:03:07;;;;;;;28.17;10.15;;;10.50;72.80;;;;;;6245902;28;20542;-72
2024/01/23 10:06:08;;;;;;;26.77;9.52;;;10.60;72.60;;;;;;6245165;28;20580;-73
2024/01/23 10:09:09;;;;;;;23.88;10.27;;;10.70;72.40;;;;;;6274110;28;20079;-71
2024/01/23 10:12:10;;;;;;;23.05;8.32;;;10.90;72.20;;;;;;6227717;28;20041;-72
2024/01/23 10:15:16;;;;;;;20.75;9.60;;;11.10;72.00;;;;;;6247478;28;20021;-72
2024/01/23 10:18:17;;;;;;;21.95;8.75;;;11.10;71.50;;;;;;6242478;28;20033;-72
2024/01/23 10:21:21;;;;;;;22.67;7.70;;;11.20;71.10;;;;;;6246435;28;20503;-72
2024/01/23 10:24:22;;;;;;;29.08;8.75;;;11.30;70.80;;;;;;6278203;28;20048;-71
2024/01/23 10:27:25;;;;;;;27.85;8.73;;;11.50;70.80;;;;;;6233858;28;20120;-70
2024/01/23 10:30:26;;;;;;;21.20;9.25;;;11.60;70.70;;;;;;6243261;28;20052;-72
2024/01/23 10:33:27;;;;;;;17.60;7.47;;;11.70;70.60;;;;;;6241387;28;20022;-74
2024/01/23 10:36:28;;;;;;;34.63;9.02;;;11.80;70.40;;;;;;6242682;28;20192;-72
2024/01/23 10:39:29;;;;;;;25.33;10.65;;;11.90;70.30;;;;;;6227756;28;20029;-72
2024/01/23 10:42:31;;;;;;;33.72;11.30;;;12.10;70.40;;;;;;6244987;28;20541;-71
2024/01/23 10:45:32;;;;;;;28.30;9.95;;;12.20;70.10;;;;;;6227240;28;20335;-73
2024/01/23 10:48:33;;;;;;;29.00;12.00;;;12.30;70.00;;;;;;6242062;28;20020;-71
2024/01/23 10:51:36;;;;;;;31.98;12.70;;;12.50;69.50;;;;;;6228252;28;20109;-71
2024/01/23 10:54:44;;;;;;;33.00;13.75;;;12.60;69.00;;;;;;6245687;28;20064;-71
2024/01/23 10:57:47;;;;;;;29.58;12.50;;;12.90;68.80;;;;;;6239164;28;20498;-72
2024/01/23 11:00:50;;;;;;;25.67;10.52;;;13.30;68.00;;;;;;6241067;28;20657;-71
2024/01/23 11:03:51;;;;;;;31.88;12.63;;;13.50;66.60;;;;;;6243328;28;20045;-72
2024/01/23 11:07:00;;;;;;;28.17;12.52;;;13.70;66.10;;;;;;6241694;28;20087;-72
2024/01/23 11:10:36;;;;;;;36.05;13.52;;;13.80;65.50;;;;;;6239119;28;20028;-71
2024/01/23 11:13:52;;;;;;;31.08;11.38;;;13.80;65.10;;;;;;6249879;28;20029;-71
2024/01/23 11:17:06;;;;;;;31.33;12.32;;;13.80;65.20;;;;;;6227057;28;20079;-71
2024/01/23 11:20:14;;;;;;;47.42;13.75;;;14.10;65.00;;;;;;6243037;28;20152;-71
2024/01/23 11:23:16;;;;;;;37.80;14.93;;;14.80;64.00;;;;;;6232460;28;20124;-73
2024/01/23 11:26:19;;;;;;;43.65;16.73;;;15.60;62.10;;;;;;6246552;28;20030;-72
2024/01/23 11:29:21;;;;;;;37.30;14.70;;;16.40;59.60;;;;;;6241056;28;20104;-73
2024/01/23 11:32:25;;;;;;;39.78;16.00;;;17.10;58.00;;;;;;6229451;28;20108;-73
2024/01/23 11:35:25;;;;;;;35.55;14.02;;;17.60;56.40;;;;;;6248278;28;20091;-72
2024/01/23 11:38:40;;;;;;;31.23;13.27;;;18.10;55.00;;;;;;6248849;28;20048;-72
2024/01/23 11:41:52;;;;;;;40.17;14.32;;;18.40;53.50;;;;;;6233357;28;20805;-71
2024/01/23 11:45:28;;;;;;;31.45;12.85;;;18.60;52.90;;;;;;6248621;28;20056;-73
2024/01/23 11:48:29;;;;;;;35.72;13.55;;;19.00;51.50;;;;;;6248627;28;20358;-72
2024/01/23 11:51:30;;;;;;;35.33;13.73;;;19.30;50.00;;;;;;6248339;28;20025;-73
2024/01/23 11:54:31;;;;;;;29.30;12.80;;;19.60;50.00;;;;;;6232182;28;20141;-72
2024/01/23 11:57:33;;;;;;;27.05;11.38;;;20.00;48.20;;;;;;6247306;28;20024;-72
2024/01/23 12:00:34;;;;;;;19.55;9.30;;;20.20;47.80;;;;;;6241621;28;20024;-73
2024/01/23 12:03:36;;;;;;;24.05;10.50;;;20.20;46.50;;;;;;6251149;28;20454;-72
2024/01/23 12:06:37;;;;;;;19.17;8.95;;;20.30;46.30;;;;;;6243913;28;20045;-75
2024/01/23 12:09:38;;;;;;;23.85;9.65;;;20.30;46.80;;;;;;6245814;28;20017;-73
2024/01/23 12:12:39;;;;;;;19.55;9.18;;;19.90;47.30;;;;;;6245292;28;20485;-73
2024/01/23 12:15:40;;;;;;;18.33;9.15;;;19.10;47.60;;;;;;6238885;28;20049;-73
2024/01/23 12:18:41;;;;;;;21.40;8.55;;;18.30;49.20;;;;;;6247257;28;20410;-72
2024/01/23 12:21:45;;;;;;;23.88;9.52;;;17.70;50.70;;;;;;6226489;28;20025;-72
2024/01/23 12:24:47;;;;;;;25.75;7.65;;;17.10;51.70;;;;;;6252387;28;20029;-74
2024/01/23 12:27:50;;;;;;;24.05;9.57;;;16.60;52.40;;;;;;6248468;28;20025;-74
2024/01/23 12:30:51;;;;;;;21.10;8.65;;;16.10;53.30;;;;;;6241890;28;20025;-72
2024/01/23 12:33:52;;;;;;;21.65;8.70;;;15.60;54.10;;;;;;6253287;28;20027;-72
2024/01/23 12:36:53;;;;;;;19.63;8.15;;;15.30;54.90;;;;;;6228833;28;20198;-74
2024/01/23 12:39:55;;;;;;;20.55;8.68;;;15.10;55.50;;;;;;6241582;28;20020;-71
2024/01/23 12:42:56;;;;;;;24.00;8.90;;;14.90;55.80;;;;;;6254613;28;20073;-73
2024/01/23 12:45:57;;;;;;;19.45;8.93;;;14.80;56.20;;;;;;6245076;28;20021;-72
2024/01/23 12:49:09;;;;;;;27.83;8.55;;;14.60;56.40;;;;;;6249820;28;21588;-73
2024/01/23 12:52:17;;;;;;;23.15;9.07;;;14.40;56.70;;;;;;6244588;28;20033;-72
2024/01/23 12:55:19;;;;;;;20.73;8.02;;;14.50;57.00;;;;;;6248613;28;20025;-73
2024/01/23 12:58:20;;;;;;;18.48;8.35;;;14.40;57.00;;;;;;6244992;28;20107;-73
2024/01/23 13:02:01;;;;;;;21.25;8.18;;;14.40;57.20;;;;;;6240045;28;20052;-72
2024/01/23 13:05:02;;;;;;;19.05;8.65;;;14.40;57.30;;;;;;6245774;28;20036;-72
2024/01/23 13:08:04;;;;;;;19.05;9.13;;;14.40;57.30;;;;;;6240738;28;20080;-72
2024/01/23 13:11:06;;;;;;;23.63;8.80;;;14.40;57.40;;;;;;6236009;28;20048;-73
2024/01/23 13:14:06;;;;;;;20.50;9.10;;;14.40;57.40;;;;;;6233153;28;20029;-73
2024/01/23 13:17:08;;;;;;;28.58;8.88;;;14.40;57.50;;;;;;6254703;28;20136;-72
2024/01/23 13:20:10;;;;;;;23.67;8.93;;;14.40;57.80;;;;;;6232948;28;20105;-71
2024/01/23 13:23:11;;;;;;;28.85;9.77;;;14.40;57.80;;;;;;6257493;28;20100;-73
2024/01/23 13:26:13;;;;;;;21.08;9.35;;;14.40;58.00;;;;;;6228689;28;20198;-72
2024/01/23 13:29:13;;;;;;;25.65;9.65;;;14.40;58.10;;;;;;6244453;28;20112;-73
2024/01/23 13:32:14;;;;;;;21.20;9.00;;;14.60;58.20;;;;;;6243337;28;20037;-71
2024/01/23 13:35:17;;;;;;;21.65;8.18;;;14.80;58.00;;;;;;6245309;28;20358;-71
2024/01/23 13:38:18;;;;;;;18.05;6.40;;;15.00;57.70;;;;;;6261006;28;20033;-72
2024/01/23 13:41:20;;;;;;;19.65;7.75;;;15.10;57.40;;;;;;6245864;28;20055;-71
2024/01/23 13:44:21;;;;;;;20.80;7.57;;;15.10;57.80;;;;;;6244748;28;20606;-72
2024/01/23 13:47:22;;;;;;;19.02;7.47;;;15.10;57.10;;;;;;6240921;28;20029;-72
2024/01/23 13:50:23;;;;;;;23.13;7.28;;;15.00;57.30;;;;;;6242419;28;20032;-71
2024/01/23 13:53:24;;;;;;;17.05;6.85;;;15.00;57.50;;;;;;6245423;28;20048;-71
2024/01/23 13:56:26;;;;;;;21.80;7.10;;;15.00;57.40;;;;;;6231083;28;20062;-72
2024/01/23 13:59:27;;;;;;;17.05;6.40;;;14.90;57.50;;;;;;6226618;28;20069;-73
2024/01/23 14:02:28;;;;;;;12.43;6.00;;;14.90;57.40;;;;;;6243103;28;20410;-71
2024/01/23 14:05:29;;;;;;;15.80;6.30;;;14.90;57.50;;;;;;6240478;28;20144;-72
2024/01/23 14:08:30;;;;;;;9.90;5.40;;;14.90;57.50;;;;;;6243168;28;20155;-71
2024/01/23 14:11:31;;;;;;;9.90;4.75;;;15.00;57.50;;;;;;6245664;28;20044;-73
2024/01/23 14:14:32;;;;;;;11.75;4.75;;;15.10;57.40;;;;;;6243975;28;20432;-72
2024/01/23 14:17:32;;;;;;;5.93;3.65;;;15.20;57.20;;;;;;6243536;28;20621;-72
2024/01/23 14:20:33;;;;;;;12.00;3.80;;;15.40;57.10;;;;;;6239021;28;20021;-71
2024/01/23 14:23:36;;;;;;;9.07;4.03;;;15.40;56.50;;;;;;6260400;28;20505;-72
2024/01/23 14:26:41;;;;;;;11.27;4.40;;;15.40;56.00;;;;;;6247866;28;20097;-72
2024/01/23 14:29:43;;;;;;;12.82;4.13;;;15.30;55.90;;;;;;6247585;28;20489;-71
2024/01/23 14:32:45;;;;;;;11.60;4.47;;;15.20;55.90;;;;;;6232975;28;20064;-74
2024/01/23 14:40:10;;;;;;;7.50;3.45;;;15.30;56.30;;;;;;6246199;28;20112;-72
2024/01/23 14:43:11;;;;;;;24.45;4.00;;;15.40;56.10;;;;;;6252184;28;20082;-71
2024/01/23 14:46:12;;;;;;;6.93;2.78;;;15.50;55.90;;;;;;6243871;28;20480;-73
2024/01/23 14:49:13;;;;;;;9.98;3.53;;;15.40;55.90;;;;;;6246450;28;20016;-71
2024/01/23 14:52:14;;;;;;;13.38;3.85;;;15.40;56.10;;;;;;6241083;28;20643;-72
2024/01/23 14:55:16;;;;;;;9.73;3.78;;;15.40;56.30;;;;;;6254457;28;20486;-72
2024/01/23 14:58:17;;;;;;;16.67;4.35;;;15.40;56.40;;;;;;6243683;28;20043;-72
2024/01/23 15:01:20;;;;;;;7.50;3.63;;;15.50;56.40;;;;;;6240640;28;20095;-71
2024/01/23 15:04:21;;;;;;;14.93;4.43;;;15.50;56.30;;;;;;6242566;28;20025;-72
2024/01/23 15:07:23;;;;;;;17.45;4.95;;;15.50;56.30;;;;;;6246249;28;20178;-71
2024/01/23 15:10:25;;;;;;;11.07;4.72;;;15.50;56.30;;;;;;6251253;28;20077;-73
2024/01/23 15:13:26;;;;;;;13.65;5.05;;;15.50;56.30;;;;;;6254377;28;20029;-73
2024/01/23 15:16:27;;;;;;;15.20;5.35;;;15.50;56.40;;;;;;6266845;28;20036;-71
2024/01/23 15:19:28;;;;;;;14.15;5.50;;;15.40;56.40;;;;;;6252038;28;20032;-72
2024/01/23 15:22:29;;;;;;;10.65;4.53;;;15.40;56.60;;;;;;6227962;28;20053;-72
2024/01/23 15:25:32;;;;;;;18.80;5.97;;;15.40;56.70;;;;;;6251047;28;20492;-72
2024/01/23 15:28:34;;;;;;;15.57;5.63;;;15.30;56.70;;;;;;6267032;28;20051;-73
2024/01/23 15:31:35;;;;;;;12.60;5.22;;;15.20;56.80;;;;;;6254108;28;20365;-71
2024/01/23 15:34:36;;;;;;;13.95;5.63;;;15.20;56.90;;;;;;6249633;28;20107;-71
2024/01/23 15:37:37;;;;;;;10.30;5.05;;;15.10;56.90;;;;;;6248845;28;20040;-72
2024/01/23 15:40:38;;;;;;;19.35;5.57;;;15.10;57.00;;;;;;6252926;28;20422;-72